createdAt,value
2023-04-11T00:02:18.112Z,15.52
2023-04-11T00:04:47.782Z,16.10
2023-04-11T00:07:17.475Z,11.15
2023-04-11T00:09:47.112Z,11.85
2023-04-11T00:12:16.903Z,17.77
2023-04-11T00:14:50.392Z,10.43
2023-04-11T00:17:20.002Z,13.13
2023-04-11T00:19:50.207Z,11.82
2023-04-11T00:22:19.950Z,10.52
2023-04-11T00:24:49.483Z,16.70
2023-04-11T00:27:20.534Z,14.52
2023-04-11T00:29:51.327Z,15.48
2023-04-11T00:32:21.196Z,10.60
2023-04-11T00:34:50.782Z,14.80
2023-04-11T00:37:22.989Z,12.13
2023-04-11T00:39:54.435Z,7.25
2023-04-11T00:42:24.013Z,9.55
2023-04-11T00:44:53.638Z,11.32
2023-04-11T00:47:23.421Z,12.98
2023-04-11T00:49:53.022Z,10.80
2023-04-11T00:52:22.790Z,10.25
2023-04-11T00:54:53.006Z,22.48
2023-04-11T00:57:24.278Z,12.40
2023-04-11T00:59:54.260Z,14.85
2023-04-11T01:02:26.490Z,13.88
2023-04-11T01:04:57.237Z,15.50
2023-04-11T01:07:27.835Z,18.17
2023-04-11T01:09:57.813Z,13.38
2023-04-11T01:12:27.817Z,19.00
2023-04-11T01:14:57.458Z,10.20
2023-04-11T01:17:28.000Z,17.88
2023-04-11T01:19:57.781Z,13.38
2023-04-11T01:22:28.929Z,10.00
2023-04-11T01:24:58.627Z,20.63
2023-04-11T01:27:28.327Z,10.70
2023-04-11T01:29:57.983Z,15.55
2023-04-11T01:32:27.551Z,14.77
2023-04-11T01:34:59.673Z,25.05
2023-04-11T01:37:29.404Z,12.50
2023-04-11T01:39:59.107Z,17.60
2023-04-11T01:42:30.898Z,12.05
2023-04-11T01:45:01.576Z,10.43
2023-04-11T01:47:31.127Z,14.45
2023-04-11T01:50:00.723Z,11.77
2023-04-11T01:52:30.383Z,11.93
2023-04-11T01:55:00.034Z,10.82
2023-04-11T01:57:29.585Z,9.73
2023-04-11T01:59:59.121Z,8.10
2023-04-11T02:02:28.922Z,12.50
2023-04-11T02:04:58.573Z,21.35
2023-04-11T02:07:28.996Z,10.98
2023-04-11T02:10:00.372Z,11.50
2023-04-11T02:12:30.008Z,16.10
2023-04-11T02:14:59.560Z,14.02
2023-04-11T02:17:32.467Z,20.33
2023-04-11T02:20:02.597Z,20.58
2023-04-11T02:22:32.343Z,16.05
2023-04-11T02:25:02.265Z,19.10
2023-04-11T02:27:32.950Z,14.57
2023-04-11T02:30:02.716Z,17.95
2023-04-11T02:32:32.938Z,20.95
2023-04-11T02:35:02.915Z,16.52
2023-04-11T02:37:32.863Z,20.38
2023-04-11T02:40:05.424Z,14.32
2023-04-11T02:42:35.095Z,16.25
2023-04-11T02:45:05.374Z,25.15
2023-04-11T02:47:35.029Z,20.73
2023-04-11T02:50:04.657Z,16.38
2023-04-11T02:52:35.165Z,22.30
2023-04-11T02:55:05.352Z,14.85
2023-04-11T02:57:34.906Z,23.52
2023-04-11T03:00:08.636Z,18.52
2023-04-11T03:02:38.727Z,22.52
2023-04-11T03:05:09.015Z,12.73
2023-04-11T03:07:40.185Z,17.33
2023-04-11T03:10:10.675Z,13.32
2023-04-11T03:12:40.339Z,15.98
2023-04-11T03:15:10.488Z,17.05
2023-04-11T03:17:40.126Z,23.20
2023-04-11T03:20:13.204Z,24.08
2023-04-11T03:22:42.804Z,25.63
2023-04-11T03:25:12.830Z,24.42
2023-04-11T03:27:42.446Z,15.20
2023-04-11T03:30:12.477Z,24.08
2023-04-11T03:32:42.444Z,16.83
2023-04-11T03:35:12.286Z,18.30
2023-04-11T03:37:42.073Z,25.10
2023-04-11T03:40:12.205Z,21.10
2023-04-11T03:42:41.901Z,16.35
2023-04-11T03:45:11.943Z,22.92
2023-04-11T03:47:42.501Z,26.60
2023-04-11T03:50:12.772Z,32.88
2023-04-11T03:52:42.388Z,23.50
2023-04-11T03:55:12.153Z,25.58
2023-04-11T03:57:41.774Z,29.02
2023-04-11T04:00:12.313Z,20.17
2023-04-11T04:02:42.324Z,29.85
2023-04-11T04:05:12.367Z,30.13
2023-04-11T04:07:42.002Z,29.77
2023-04-11T04:10:11.901Z,28.65
2023-04-11T04:12:42.334Z,31.88
2023-04-11T04:15:12.872Z,26.85
2023-04-11T04:17:43.384Z,28.75
2023-04-11T04:20:13.331Z,22.08
2023-04-11T04:22:42.932Z,27.85
2023-04-11T04:25:14.218Z,29.77
2023-04-11T04:27:45.805Z,31.80
2023-04-11T04:30:20.680Z,38.88
2023-04-11T04:32:50.330Z,40.13
2023-04-11T04:35:19.916Z,36.35
2023-04-11T04:37:49.515Z,27.95
2023-04-11T04:40:21.963Z,31.15
2023-04-11T04:42:51.565Z,32.47
2023-04-11T04:45:21.264Z,26.15
2023-04-11T04:47:50.878Z,40.00
2023-04-11T04:50:21.450Z,28.10
2023-04-11T04:52:51.016Z,35.38
2023-04-11T04:55:20.554Z,28.85
2023-04-11T04:57:50.066Z,31.77
2023-04-11T05:00:21.153Z,26.30
2023-04-11T05:02:56.277Z,15.43
2023-04-11T05:05:25.994Z,22.98
2023-04-11T05:07:55.595Z,18.25
2023-04-11T05:10:25.287Z,12.85
2023-04-11T05:12:55.096Z,15.90
2023-04-11T05:15:25.057Z,16.85
2023-04-11T05:17:54.749Z,15.07
2023-04-11T05:20:26.253Z,13.70
2023-04-11T05:22:55.895Z,16.63
2023-04-11T05:25:25.476Z,17.50
2023-04-11T05:27:55.092Z,18.45
2023-04-11T05:30:24.840Z,29.80
2023-04-11T05:32:54.474Z,22.50
2023-04-11T05:35:24.181Z,28.15
2023-04-11T05:37:53.804Z,25.85
2023-04-11T05:40:23.487Z,18.27
2023-04-11T05:42:53.260Z,31.60
2023-04-11T05:45:22.866Z,20.88
2023-04-11T05:47:52.587Z,28.75
2023-04-11T05:50:22.176Z,27.33
2023-04-11T05:52:51.796Z,34.55
2023-04-11T05:55:21.440Z,26.38
2023-04-11T05:57:51.008Z,27.77
2023-04-11T06:00:22.405Z,26.83
2023-04-11T06:02:53.216Z,36.92
2023-04-11T06:05:23.527Z,33.15
2023-04-11T06:07:53.402Z,29.05
2023-04-11T06:10:23.031Z,34.38
2023-04-11T06:12:52.639Z,29.27
2023-04-11T06:15:23.038Z,29.40
2023-04-11T06:17:52.713Z,43.00
2023-04-11T06:20:23.517Z,46.20
2023-04-11T06:22:53.045Z,45.05
2023-04-11T06:25:23.722Z,45.17
2023-04-11T06:27:53.403Z,47.25
2023-04-11T06:30:23.016Z,67.95
2023-04-11T06:32:52.853Z,50.08
2023-04-11T06:35:26.295Z,61.08
2023-04-11T06:37:55.896Z,44.67
2023-04-11T06:40:25.475Z,51.05
2023-04-11T06:42:55.089Z,38.70
2023-04-11T06:45:24.702Z,37.63
2023-04-11T06:47:54.298Z,44.13
2023-04-11T06:50:24.346Z,54.65
2023-04-11T06:52:54.001Z,36.03
2023-04-11T06:55:24.499Z,56.03
2023-04-11T06:57:54.080Z,54.42
2023-04-11T07:00:23.892Z,42.35
2023-04-11T07:02:54.113Z,44.42
2023-04-11T07:05:23.794Z,40.80
2023-04-11T07:07:53.346Z,35.55
2023-04-11T07:10:23.050Z,36.80
2023-04-11T07:12:52.711Z,30.75
2023-04-11T07:15:23.073Z,40.97
2023-04-11T07:17:53.012Z,48.92
2023-04-11T07:20:22.752Z,48.72
2023-04-11T07:22:52.380Z,54.45
2023-04-11T07:25:24.101Z,44.95
2023-04-11T07:27:54.632Z,35.60
2023-04-11T07:30:24.731Z,59.20
2023-04-11T07:32:54.507Z,46.13
2023-04-11T07:35:24.790Z,38.42
2023-04-11T07:37:55.217Z,50.15
2023-04-11T07:40:24.895Z,52.70
2023-04-11T07:42:54.682Z,50.20
2023-04-11T07:45:24.400Z,55.58
2023-04-11T07:47:54.031Z,55.72
2023-04-11T07:50:23.698Z,58.55
2023-04-11T07:52:53.240Z,58.45
2023-04-11T07:55:22.867Z,51.65
2023-04-11T07:57:52.515Z,46.75
2023-04-11T08:00:24.351Z,69.90
2023-04-11T08:02:54.381Z,69.15
2023-04-11T08:05:24.120Z,64.50
2023-04-11T08:07:53.942Z,61.00
2023-04-11T08:10:23.550Z,45.97
2023-04-11T08:12:53.641Z,52.22
2023-04-11T08:15:23.553Z,65.38
2023-04-11T08:17:53.423Z,65.38
2023-04-11T08:20:23.083Z,74.97
2023-04-11T08:22:52.748Z,79.85
2023-04-11T08:25:26.547Z,60.53
2023-04-11T08:27:56.121Z,55.50
2023-04-11T08:30:26.359Z,62.00
2023-04-11T08:32:56.002Z,68.20
2023-04-11T08:35:25.695Z,56.72
2023-04-11T08:37:55.526Z,56.25
2023-04-11T08:40:26.979Z,66.22
2023-04-11T08:43:03.299Z,57.53
2023-04-11T08:45:32.907Z,51.58
2023-04-11T08:48:02.465Z,71.68
2023-04-11T08:50:32.154Z,49.45
2023-04-11T08:53:04.828Z,45.17
2023-04-11T08:55:34.446Z,76.73
2023-04-11T08:58:05.284Z,71.07
2023-04-11T09:00:34.980Z,65.50
2023-04-11T09:03:08.978Z,61.67
2023-04-11T09:05:43.976Z,62.25
2023-04-11T09:08:18.423Z,62.00
2023-04-11T09:10:48.696Z,55.72
2023-04-11T09:13:30.285Z,76.45
2023-04-11T09:16:13.770Z,63.67
2023-04-11T09:18:45.930Z,53.70
2023-04-11T09:21:17.534Z,54.05
2023-04-11T09:23:47.222Z,56.03
2023-04-11T09:26:31.859Z,64.60
2023-04-11T09:29:02.100Z,57.53
2023-04-11T09:31:47.874Z,52.00
2023-04-11T09:34:28.860Z,51.75
2023-04-11T09:36:59.030Z,58.45
2023-04-11T09:39:30.902Z,59.47
2023-04-11T09:42:00.950Z,57.03
2023-04-11T09:44:48.121Z,57.88
2023-04-11T09:47:17.857Z,58.88
2023-04-11T09:49:48.715Z,55.20
2023-04-11T09:52:19.886Z,55.53
2023-04-11T09:54:52.775Z,51.88
2023-04-11T09:57:24.735Z,53.95
2023-04-11T09:59:56.159Z,69.05
2023-04-11T10:02:25.842Z,54.97
2023-04-11T10:04:56.148Z,61.38
2023-04-11T10:07:26.348Z,64.35
2023-04-11T10:09:56.192Z,54.33
2023-04-11T10:12:36.770Z,65.55
2023-04-11T10:15:10.187Z,68.18
2023-04-11T10:17:41.386Z,76.82
2023-04-11T10:20:47.507Z,79.60
2023-04-11T10:23:18.049Z,77.22
2023-04-11T10:25:52.462Z,53.70
2023-04-11T10:28:41.523Z,61.20
2023-04-11T10:31:14.799Z,66.68
2023-04-11T10:34:16.830Z,58.35
2023-04-11T10:37:05.919Z,65.60
2023-04-11T10:39:53.629Z,49.78
2023-04-11T10:42:40.052Z,55.90
2023-04-11T10:45:30.494Z,61.40
2023-04-11T10:48:09.051Z,66.30
2023-04-11T10:50:42.543Z,55.75
2023-04-11T10:53:35.384Z,55.00
2023-04-11T10:56:05.556Z,48.17
2023-04-11T10:58:41.071Z,53.38
2023-04-11T11:01:26.641Z,55.72
2023-04-11T11:04:02.318Z,61.13
2023-04-11T11:06:32.985Z,61.30
2023-04-11T11:09:22.852Z,57.85
2023-04-11T11:12:17.731Z,51.78
2023-04-11T11:14:50.058Z,58.42
2023-04-11T11:17:20.317Z,51.50
2023-04-11T11:19:50.943Z,59.03
2023-04-11T11:22:30.149Z,73.68
2023-04-11T11:25:10.651Z,61.20
2023-04-11T11:27:40.275Z,65.70
2023-04-11T11:30:13.676Z,54.65
2023-04-11T11:32:43.283Z,73.07
2023-04-11T11:35:16.160Z,68.28
2023-04-11T11:37:45.974Z,62.93
2023-04-11T11:40:15.933Z,74.40
2023-04-11T11:42:45.956Z,65.53
2023-04-11T11:47:56.569Z,50.40
2023-04-11T11:50:33.493Z,59.42
2023-04-11T11:53:17.432Z,60.95
2023-04-11T11:58:16.952Z,46.70
2023-04-11T12:00:51.632Z,63.70
2023-04-11T12:03:25.326Z,59.55
2023-04-11T12:05:59.626Z,73.85
2023-04-11T12:08:29.177Z,49.50
2023-04-11T12:10:58.732Z,74.18
2023-04-11T12:13:29.288Z,57.75
2023-04-11T12:16:03.020Z,59.45
2023-04-11T12:18:32.705Z,65.07
2023-04-11T12:21:02.324Z,58.17
2023-04-11T12:23:31.891Z,72.32
2023-04-11T12:26:02.202Z,66.50
2023-04-11T12:28:32.078Z,88.00
2023-04-11T12:31:01.765Z,69.43
2023-04-11T12:33:31.399Z,49.42
2023-04-11T12:36:00.977Z,84.10
2023-04-11T12:38:30.508Z,79.40
2023-04-11T12:41:19.665Z,65.75
2023-04-11T12:43:49.706Z,64.28
2023-04-11T12:46:20.258Z,76.75
2023-04-11T12:48:49.956Z,67.85
2023-04-11T12:51:19.596Z,104.75
2023-04-11T12:53:49.153Z,69.97
2023-04-11T12:56:18.702Z,68.18
2023-04-11T12:58:48.453Z,79.32
2023-04-11T13:01:18.852Z,89.97
2023-04-11T13:03:48.597Z,74.45
2023-04-11T13:06:18.467Z,80.63
2023-04-11T13:08:48.600Z,62.75
2023-04-11T13:11:18.179Z,87.53
2023-04-11T13:13:47.886Z,61.40
2023-04-11T13:16:18.159Z,71.13
2023-04-11T13:18:47.820Z,71.53
2023-04-11T13:21:17.840Z,76.50
2023-04-11T13:23:47.894Z,66.55
2023-04-11T13:26:17.497Z,63.10
2023-04-11T13:28:47.902Z,70.45
2023-04-11T13:31:17.529Z,71.70
2023-04-11T13:33:49.383Z,59.63
2023-04-11T13:36:19.039Z,95.25
2023-04-11T13:38:49.742Z,90.47
2023-04-11T13:41:19.414Z,104.88
2023-04-11T13:43:49.140Z,87.88
2023-04-11T13:46:18.857Z,103.50
2023-04-11T13:48:48.786Z,65.38
2023-04-11T13:51:18.598Z,80.82
2023-04-11T13:53:48.155Z,74.05
2023-04-11T13:56:17.820Z,76.90
2023-04-11T13:58:47.681Z,87.07
2023-04-11T14:01:17.335Z,120.82
2023-04-11T14:03:46.962Z,92.10
2023-04-11T14:06:16.697Z,87.07
2023-04-11T14:08:46.277Z,99.63
2023-04-11T14:11:15.990Z,93.95
2023-04-11T14:13:45.571Z,112.05
2023-04-11T14:16:15.349Z,111.03
2023-04-11T14:18:46.089Z,91.97
2023-04-11T14:21:15.884Z,112.97
2023-04-11T14:23:45.432Z,104.97
2023-04-11T14:26:14.964Z,109.30
2023-04-11T14:28:44.544Z,124.13
2023-04-11T14:31:14.240Z,150.25
2023-04-11T14:33:43.860Z,137.65
2023-04-11T14:36:13.482Z,107.15
2023-04-11T14:38:43.017Z,138.43
2023-04-11T14:41:12.604Z,146.57
2023-04-11T14:43:42.728Z,139.65
2023-04-11T14:46:12.447Z,152.45
2023-04-11T14:48:42.048Z,145.93
2023-04-11T14:51:11.598Z,202.27
2023-04-11T14:53:41.207Z,164.30
2023-04-11T14:56:11.156Z,136.73
2023-04-11T14:58:41.391Z,146.90
2023-04-11T15:01:11.005Z,180.18
2023-04-11T15:03:40.701Z,180.73
2023-04-11T15:06:12.617Z,143.90
2023-04-11T15:08:42.711Z,112.60
2023-04-11T15:11:12.295Z,112.70
2023-04-11T15:13:41.875Z,163.95
2023-04-11T15:16:11.861Z,119.22
2023-04-11T15:18:42.197Z,147.00
2023-04-11T15:21:11.775Z,131.95
2023-04-11T15:23:41.672Z,122.78
2023-04-11T15:26:11.747Z,154.40
2023-04-11T15:28:43.154Z,105.95
2023-04-11T15:31:14.346Z,120.72
2023-04-11T15:33:44.658Z,117.20
2023-04-11T15:36:14.219Z,91.38
2023-04-11T15:38:43.772Z,97.88
2023-04-11T15:41:14.731Z,113.93
2023-04-11T15:43:44.375Z,98.78
2023-04-11T15:46:14.002Z,120.03
2023-04-11T15:48:43.541Z,108.53
2023-04-11T15:51:15.494Z,89.90
2023-04-11T15:53:45.097Z,81.43
2023-04-11T15:56:15.066Z,92.03
2023-04-11T15:58:44.803Z,68.65
2023-04-11T16:01:26.531Z,101.65
2023-04-11T16:03:57.036Z,107.25
2023-04-11T16:06:27.451Z,93.72
2023-04-11T16:08:57.590Z,91.47
2023-04-11T16:11:27.388Z,86.97
2023-04-11T16:13:57.389Z,79.18
2023-04-11T16:16:27.353Z,77.32
2023-04-11T16:18:56.967Z,101.55
2023-04-11T16:21:26.611Z,98.40
2023-04-11T16:23:56.867Z,92.22
2023-04-11T16:26:26.611Z,67.68
2023-04-11T16:28:56.220Z,74.68
2023-04-11T16:31:26.451Z,67.80
2023-04-11T16:33:56.744Z,82.30
2023-04-11T16:36:26.543Z,84.22
2023-04-11T16:38:56.698Z,79.95
2023-04-11T16:41:26.530Z,70.18
2023-04-11T16:43:56.391Z,59.95
2023-04-11T16:46:26.122Z,80.30
2023-04-11T16:48:55.672Z,113.22
2023-04-11T16:51:25.424Z,94.20
2023-04-11T16:53:55.244Z,81.50
2023-04-11T16:56:26.626Z,88.95
2023-04-11T16:58:57.437Z,68.80
2023-04-11T17:01:27.026Z,73.30
2023-04-11T17:03:57.385Z,65.30
2023-04-11T17:06:27.455Z,78.55
2023-04-11T17:08:58.907Z,79.95
2023-04-11T17:11:28.482Z,90.15
2023-04-11T17:13:58.154Z,79.93
2023-04-11T17:16:28.578Z,70.03
2023-04-11T17:18:58.272Z,73.80
2023-04-11T17:21:27.997Z,89.07
2023-04-11T17:23:58.113Z,71.30
2023-04-11T17:26:27.798Z,70.07
2023-04-11T17:28:57.399Z,82.25
2023-04-11T17:31:29.576Z,86.50
2023-04-11T17:33:59.520Z,76.32
2023-04-11T17:36:30.375Z,85.10
2023-04-11T17:38:59.940Z,80.10
2023-04-11T17:41:29.505Z,104.72
2023-04-11T17:43:59.414Z,86.38
2023-04-11T17:46:29.250Z,68.50
2023-04-11T17:48:58.799Z,86.88
2023-04-11T17:51:29.348Z,99.80
2023-04-11T17:53:59.533Z,62.17
2023-04-11T17:56:29.413Z,74.25
2023-04-11T17:58:58.971Z,76.63
2023-04-11T18:01:33.597Z,56.42
2023-04-11T18:04:03.804Z,89.97
2023-04-11T18:06:35.765Z,68.18
2023-04-11T18:09:05.698Z,64.78
2023-04-11T18:11:35.565Z,75.88
2023-04-11T18:14:05.219Z,77.47
2023-04-11T18:16:34.985Z,87.63
2023-04-11T18:19:07.891Z,71.57
2023-04-11T18:21:37.555Z,60.90
2023-04-11T18:24:07.315Z,73.32
2023-04-11T18:26:37.132Z,54.78
2023-04-11T18:29:07.545Z,57.97
2023-04-11T18:31:37.272Z,49.40
2023-04-11T18:34:07.525Z,88.43
2023-04-11T18:36:37.906Z,72.40
2023-04-11T18:39:07.469Z,62.38
2023-04-11T18:41:37.051Z,71.80
2023-04-11T18:44:09.241Z,44.67
2023-04-11T18:46:39.539Z,70.93
2023-04-11T18:49:09.843Z,72.07
2023-04-11T18:51:39.733Z,70.38
2023-04-11T18:54:09.336Z,70.13
2023-04-11T18:56:40.218Z,74.00
2023-04-11T18:59:10.692Z,72.75
2023-04-11T19:01:40.963Z,45.97
2023-04-11T19:04:10.926Z,69.47
2023-04-11T19:06:40.604Z,77.47
2023-04-11T19:09:10.823Z,58.97
2023-04-11T19:11:40.509Z,74.57
2023-04-11T19:14:11.620Z,70.03
2023-04-11T19:16:41.394Z,63.67
2023-04-11T19:19:11.029Z,59.50
2023-04-11T19:21:40.882Z,60.60
2023-04-11T19:24:11.197Z,68.18
2023-04-11T19:26:41.020Z,80.70
2023-04-11T19:29:10.674Z,62.28
2023-04-11T19:31:40.240Z,63.40
2023-04-11T19:34:09.874Z,63.97
2023-04-11T19:36:39.505Z,45.95
2023-04-11T19:39:09.823Z,61.88
2023-04-11T19:41:39.459Z,74.35
2023-04-11T19:44:09.128Z,46.75
2023-04-11T19:46:38.660Z,84.82
2023-04-11T19:49:08.376Z,58.75
2023-04-11T19:51:38.321Z,80.22
2023-04-11T19:54:07.915Z,56.33
2023-04-11T19:56:40.608Z,52.78
2023-04-11T19:59:10.229Z,77.67
2023-04-11T20:01:39.930Z,62.13
2023-04-11T20:04:09.755Z,58.25
2023-04-11T20:06:39.456Z,84.03
2023-04-11T20:09:09.039Z,84.57
2023-04-11T20:11:39.236Z,61.40
2023-04-11T20:14:09.634Z,57.90
2023-04-11T20:16:39.427Z,53.55
2023-04-11T20:19:09.744Z,54.60
2023-04-11T20:21:39.341Z,70.40
2023-04-11T20:24:11.009Z,27.73
2023-04-11T20:26:40.637Z,60.00
2023-04-11T20:29:10.179Z,52.38
2023-04-11T20:31:39.756Z,60.97
2023-04-11T20:34:09.420Z,64.00
2023-04-11T20:36:39.611Z,44.92
2023-04-11T20:39:09.306Z,76.93
2023-04-11T20:41:41.937Z,59.83
2023-04-11T20:44:11.550Z,40.47
2023-04-11T20:46:41.136Z,58.97
2023-04-11T20:49:10.959Z,65.53
2023-04-11T20:51:40.577Z,72.00
2023-04-11T20:54:10.177Z,46.42
2023-04-11T20:56:39.941Z,41.25
2023-04-11T20:59:10.652Z,62.97
2023-04-11T21:01:40.632Z,69.70
2023-04-11T21:04:11.221Z,36.33
2023-04-11T21:06:40.853Z,57.53
2023-04-11T21:09:10.960Z,63.40
2023-04-11T21:11:40.538Z,58.55
2023-04-11T21:14:10.107Z,64.53
2023-04-11T21:16:39.663Z,64.90
2023-04-11T21:19:09.203Z,64.78
2023-04-11T21:21:42.164Z,53.47
2023-04-11T21:24:11.802Z,57.10
2023-04-11T21:26:41.489Z,54.10
2023-04-11T21:29:12.280Z,47.40
2023-04-11T21:31:41.893Z,74.60
2023-04-11T21:34:11.499Z,72.18
2023-04-11T21:36:41.104Z,66.43
2023-04-11T21:39:10.834Z,42.20
2023-04-11T21:41:40.445Z,74.78
2023-04-11T21:44:10.022Z,50.15
2023-04-11T21:46:39.662Z,62.08
2023-04-11T21:49:09.377Z,34.65
2023-04-11T21:51:38.928Z,52.58
2023-04-11T21:54:08.645Z,57.67
2023-04-11T21:56:38.796Z,45.00
2023-04-11T21:59:08.625Z,50.75
2023-04-11T22:01:38.648Z,60.63
2023-04-11T22:04:12.194Z,52.80
2023-04-11T22:09:21.865Z,63.63
2023-04-11T22:11:51.974Z,57.53
2023-04-11T22:14:21.904Z,84.90
2023-04-11T22:16:51.543Z,57.22
2023-04-11T22:19:21.172Z,55.08
2023-04-11T22:21:57.325Z,74.90
2023-04-11T22:24:32.440Z,63.92
2023-04-11T22:27:05.693Z,49.60
2023-04-11T22:29:35.924Z,59.38
2023-04-11T22:32:05.798Z,58.45
2023-04-11T22:34:35.743Z,62.50
2023-04-11T22:37:05.508Z,49.70
2023-04-11T22:39:35.857Z,59.67
2023-04-11T22:42:06.336Z,58.75
2023-04-11T22:44:36.206Z,50.42
2023-04-11T22:47:15.060Z,68.75
2023-04-11T22:49:46.222Z,64.00
2023-04-11T22:52:16.376Z,61.95
2023-04-11T22:54:46.043Z,63.78
2023-04-11T22:57:15.643Z,47.55
2023-04-11T22:59:45.195Z,68.13
2023-04-11T23:02:16.315Z,65.63
2023-04-11T23:04:46.578Z,65.68
2023-04-11T23:07:18.537Z,68.35
2023-04-11T23:09:48.708Z,60.97
2023-04-11T23:12:18.516Z,66.10
2023-04-11T23:14:48.124Z,67.10
2023-04-11T23:17:17.901Z,53.15
2023-04-11T23:19:47.570Z,75.65
2023-04-11T23:22:17.490Z,67.88
2023-04-11T23:24:47.185Z,86.53
2023-04-11T23:27:16.759Z,57.40
2023-04-11T23:29:51.682Z,79.45
2023-04-11T23:32:21.725Z,76.82
2023-04-11T23:34:51.401Z,44.80
2023-04-11T23:37:21.200Z,60.45
2023-04-11T23:39:50.829Z,66.55
2023-04-11T23:42:20.355Z,60.50
2023-04-11T23:44:50.146Z,59.22
2023-04-11T23:47:19.722Z,50.58
2023-04-11T23:49:49.333Z,69.95
2023-04-11T23:52:18.899Z,60.47
2023-04-11T23:54:49.428Z,53.75
2023-04-11T23:57:19.294Z,77.05
2023-04-11T23:59:48.967Z,78.18
